Time;durP1;ratioP1;P1;durP2;ratioP2;P2;SDS_P1;SDS_P2;PMS_P1;PMS_P2;Temp;Humidity;BMP_temperature;BMP_pressure;BME280_temperature;BME280_humidity;BME280_pressure;Samples;Min_cycle;Max_cycle;Signal;HPM_P1;HPM_P2
2020/12/08 00:02:11;;;;;;;39.25;18.48;;;;;;;1.46;100.00;99685.16;4980704;28;20382;-70
2020/12/08 00:04:37;;;;;;;44.63;19.25;;;;;;;1.42;100.00;99678.25;4962739;28;20150;-68
2020/12/08 00:07:03;;;;;;;49.47;20.27;;;;;;;1.55;100.00;99689.16;4979191;28;20069;-68
2020/12/08 00:09:28;;;;;;;48.10;21.67;;;;;;;1.52;100.00;99682.22;4964381;28;20248;-70
2020/12/08 00:11:54;;;;;;;46.65;21.45;;;;;;;1.53;100.00;99681.31;4964745;28;20050;-70
2020/12/08 00:14:19;;;;;;;47.92;22.05;;;;;;;1.63;100.00;99679.09;4963767;28;20038;-68
2020/12/08 00:16:45;;;;;;;54.00;22.30;;;;;;;1.68;100.00;99674.47;4964064;28;20066;-70
2020/12/08 00:19:10;;;;;;;49.10;22.05;;;;;;;1.51;100.00;99669.94;4968636;28;20062;-71
2020/12/08 00:21:41;;;;;;;46.47;22.05;;;;;;;1.39;100.00;99667.81;4969277;28;20117;-70
2020/12/08 00:24:07;;;;;;;50.42;22.35;;;;;;;1.52;100.00;99673.44;4971519;28;20039;-70
2020/12/08 00:26:33;;;;;;;44.03;20.73;;;;;;;1.68;100.00;99669.16;4963456;28;20034;-70
2020/12/08 00:28:58;;;;;;;41.60;20.13;;;;;;;1.73;100.00;99666.34;4982352;28;20050;-70
2020/12/08 00:31:28;;;;;;;44.25;20.20;;;;;;;1.67;100.00;99664.81;4968449;28;20111;-70
2020/12/08 00:33:54;;;;;;;48.10;21.17;;;;;;;1.52;100.00;99662.84;4979538;28;20560;-70
2020/12/08 00:36:20;;;;;;;42.33;20.73;;;;;;;1.47;100.00;99660.44;4984093;28;20466;-71
2020/12/08 00:38:47;;;;;;;49.15;20.85;;;;;;;1.42;100.00;99666.84;4969754;28;20056;-70
2020/12/08 00:41:16;;;;;;;41.47;20.17;;;;;;;1.31;100.00;99664.66;4969890;28;20113;-70
2020/12/08 00:43:43;;;;;;;44.28;19.15;;;;;;;1.25;100.00;99656.97;4968250;28;20035;-70
2020/12/08 00:46:12;;;;;;;40.80;19.15;;;;;;;1.23;100.00;99651.75;4972649;28;20058;-70
2020/12/08 00:48:39;;;;;;;46.25;19.73;;;;;;;1.18;100.00;99658.16;4968966;28;20027;-70
2020/12/08 00:51:04;;;;;;;38.33;18.63;;;;;;;1.14;100.00;99652.16;4969176;28;20242;-70
2020/12/08 00:53:30;;;;;;;36.80;18.55;;;;;;;1.12;100.00;99658.44;4969308;28;20031;-70
2020/12/08 00:55:56;;;;;;;45.95;20.17;;;;;;;1.12;100.00;99655.78;4969876;28;20114;-70
2020/12/08 00:58:21;;;;;;;48.80;21.13;;;;;;;1.05;100.00;99655.19;4961222;28;20157;-71
2020/12/08 01:00:48;;;;;;;44.33;19.52;;;;;;;1.00;100.00;99658.94;4968973;28;20555;-68
2020/12/08 01:03:13;;;;;;;45.33;20.83;;;;;;;1.00;100.00;99658.94;4984762;28;20612;-70
2020/12/08 01:05:39;;;;;;;45.40;20.20;;;;;;;0.96;100.00;99668.81;4953178;28;20125;-70
2020/12/08 01:08:05;;;;;;;46.30;21.90;;;;;;;0.93;100.00;99662.78;4967364;28;20117;-71
2020/12/08 01:10:31;;;;;;;35.78;17.73;;;;;;;0.88;100.00;99654.19;4966550;28;20117;-70
2020/12/08 01:12:56;;;;;;;41.75;19.42;;;;;;;0.87;100.00;99663.88;4967178;28;20524;-70
2020/12/08 01:15:22;;;;;;;44.58;18.17;;;;;;;0.80;100.00;99657.16;4984468;28;20041;-70
2020/12/08 01:17:48;;;;;;;38.15;18.88;;;;;;;0.77;100.00;99668.72;4968923;28;20034;-69
2020/12/08 01:20:14;;;;;;;43.45;18.02;;;;;;;0.71;100.00;99663.69;4969276;28;20038;-71
2020/12/08 01:22:41;;;;;;;38.17;18.33;;;;;;;0.70;100.00;99655.81;4965003;28;20042;-71
2020/12/08 01:25:08;;;;;;;41.75;18.58;;;;;;;0.65;100.00;99661.28;4970564;28;20030;-71
2020/12/08 01:27:37;;;;;;;39.53;17.45;;;;;;;0.64;100.00;99663.97;4973011;28;20114;-70
2020/12/08 01:30:05;;;;;;;41.42;18.58;;;;;;;0.59;100.00;99673.88;4968561;28;20034;-71
2020/12/08 01:32:34;;;;;;;39.40;17.40;;;;;;;0.53;100.00;99669.72;4975828;28;20122;-70
2020/12/08 01:35:00;;;;;;;44.25;19.67;;;;;;;0.54;100.00;99673.22;4968499;28;20142;-70
2020/12/08 01:37:26;;;;;;;39.33;17.83;;;;;;;0.52;100.00;99673.25;4970833;28;20115;-70
2020/12/08 01:39:52;;;;;;;39.33;18.10;;;;;;;0.49;100.00;99673.41;4983969;28;20042;-71
2020/12/08 01:42:17;;;;;;;38.65;19.35;;;;;;;0.48;100.00;99671.69;4969791;28;20041;-71
2020/12/08 01:44:47;;;;;;;43.88;19.70;;;;;;;0.46;100.00;99667.38;4963827;28;20473;-71
2020/12/08 01:47:15;;;;;;;43.63;17.83;;;;;;;0.44;100.00;99669.19;4964933;28;20046;-70
2020/12/08 01:49:43;;;;;;;39.33;18.15;;;;;;;0.40;100.00;99669.34;4967570;28;20027;-70
2020/12/08 01:52:11;;;;;;;40.40;18.65;;;;;;;0.40;100.00;99673.75;4971935;28;20037;-70
2020/12/08 01:54:37;;;;;;;41.78;18.45;;;;;;;0.37;100.00;99681.81;4967447;28;20177;-70
2020/12/08 01:57:02;;;;;;;40.70;18.65;;;;;;;0.33;100.00;99670.50;4967732;28;20129;-70
2020/12/08 01:59:29;;;;;;;41.38;18.10;;;;;;;0.31;100.00;99680.25;4951703;28;20027;-70
2020/12/08 02:02:11;;;;;;;47.90;19.73;;;;;;;0.28;100.00;99676.88;4962721;28;20054;-70
2020/12/08 02:04:37;;;;;;;39.20;18.92;;;;;;;0.27;100.00;99683.06;4970687;28;20038;-70
2020/12/08 02:07:03;;;;;;;39.60;17.90;;;;;;;0.26;100.00;99682.22;4962346;28;20035;-70
2020/12/08 02:09:29;;;;;;;40.03;17.17;;;;;;;0.24;100.00;99673.50;4961358;28;20037;-70
2020/12/08 02:11:54;;;;;;;42.15;17.70;;;;;;;0.24;100.00;99686.69;4970189;28;20035;-70
2020/12/08 02:14:20;;;;;;;37.15;18.30;;;;;;;0.24;100.00;99683.22;4959909;28;20433;-68
2020/12/08 02:16:45;;;;;;;45.10;18.73;;;;;;;0.24;100.00;99683.22;4965755;28;20039;-70
2020/12/08 02:19:11;;;;;;;42.35;18.15;;;;;;;0.24;100.00;99683.22;4967286;28;20030;-70
2020/12/08 02:21:39;;;;;;;42.53;18.55;;;;;;;0.24;100.00;99680.56;4972503;28;20023;-70
2020/12/08 02:24:11;;;;;;;42.67;19.15;;;;;;;0.25;100.00;99675.19;4968333;28;20035;-69
2020/12/08 02:26:39;;;;;;;45.42;19.70;;;;;;;0.26;100.00;99687.47;4968203;28;20370;-69
2020/12/08 02:29:07;;;;;;;45.67;19.38;;;;;;;0.28;100.00;99685.66;4967261;28;20039;-70
2020/12/08 02:31:37;;;;;;;47.65;20.15;;;;;;;0.29;100.00;99683.88;4959018;28;20371;-70
2020/12/08 02:34:03;;;;;;;44.35;19.98;;;;;;;0.30;100.00;99678.56;4959539;28;20089;-70
2020/12/08 02:36:29;;;;;;;39.70;18.60;;;;;;;0.31;100.00;99679.38;4964972;28;20047;-70
2020/12/08 02:38:55;;;;;;;39.05;18.13;;;;;;;0.34;100.00;99679.28;4958781;28;20034;-70
2020/12/08 02:41:25;;;;;;;44.88;19.15;;;;;;;0.35;100.00;99681.00;4960622;28;20031;-70
2020/12/08 02:43:52;;;;;;;41.25;18.98;;;;;;;0.37;100.00;99681.81;4951389;28;20039;-69
2020/12/08 02:46:18;;;;;;;43.28;19.90;;;;;;;0.38;100.00;99675.59;4969965;28;20580;-68
2020/12/08 02:48:50;;;;;;;45.50;19.02;;;;;;;0.41;100.00;99680.75;4965877;28;20518;-68
2020/12/08 02:51:18;;;;;;;45.20;20.55;;;;;;;0.42;100.00;99677.19;4965312;28;20027;-70
2020/12/08 02:53:47;;;;;;;41.92;19.52;;;;;;;0.44;100.00;99680.63;4964279;28;20154;-70
2020/12/08 02:56:13;;;;;;;45.45;19.58;;;;;;;0.46;100.00;99678.78;4961381;28;20042;-70
2020/12/08 02:58:39;;;;;;;47.38;20.63;;;;;;;0.51;100.00;99690.03;4980592;28;20697;-70
2020/12/08 03:01:05;;;;;;;40.45;18.75;;;;;;;0.50;100.00;99685.66;4963067;28;20070;-70
2020/12/08 03:03:31;;;;;;;51.03;20.52;;;;;;;0.52;100.00;99683.81;4966445;28;20034;-70
2020/12/08 03:05:56;;;;;;;52.08;21.05;;;;;;;0.54;100.00;99686.41;4968962;28;20034;-69
2020/12/08 03:08:22;;;;;;;42.83;20.35;;;;;;;0.56;100.00;99688.03;4967067;28;20043;-69
2020/12/08 03:10:48;;;;;;;44.63;19.88;;;;;;;0.59;100.00;99682.66;4982836;28;20043;-70
2020/12/08 03:13:15;;;;;;;48.75;21.10;;;;;;;0.61;100.00;99694.03;4967000;28;20082;-70
2020/12/08 03:15:46;;;;;;;44.60;20.13;;;;;;;0.64;100.00;99683.34;4965207;28;20027;-70
2020/12/08 03:18:13;;;;;;;53.45;20.83;;;;;;;0.67;100.00;99693.78;4967008;28;20088;-69
2020/12/08 03:20:39;;;;;;;46.95;20.63;;;;;;;0.69;100.00;99691.91;4966388;28;20031;-69
2020/12/08 03:23:05;;;;;;;48.80;21.15;;;;;;;0.72;100.00;99686.53;4988018;28;20030;-70
2020/12/08 03:25:31;;;;;;;52.63;22.20;;;;;;;0.74;100.00;99686.47;4965358;28;20465;-68
2020/12/08 03:27:57;;;;;;;46.60;20.25;;;;;;;0.77;100.00;99688.97;4965379;28;20034;-70
2020/12/08 03:30:25;;;;;;;49.53;21.35;;;;;;;0.78;100.00;99686.28;4952365;28;20117;-70
2020/12/08 03:32:53;;;;;;;54.60;22.23;;;;;;;0.80;100.00;99684.41;4969384;28;20058;-70
2020/12/08 03:35:22;;;;;;;45.95;20.92;;;;;;;0.79;100.00;99682.72;4966203;28;20034;-70
2020/12/08 03:37:49;;;;;;;43.97;19.27;;;;;;;0.81;100.00;99687.91;4983141;28;20053;-69
2020/12/08 03:40:16;;;;;;;44.33;20.38;;;;;;;0.85;100.00;99691.31;4951425;28;20034;-70
2020/12/08 03:42:41;;;;;;;38.50;17.92;;;;;;;0.85;100.00;99691.31;4966872;28;20501;-70
2020/12/08 03:45:08;;;;;;;42.90;19.52;;;;;;;0.85;100.00;99692.16;4965065;28;20031;-70
2020/12/08 03:47:44;;;;;;;45.20;19.65;;;;;;;0.87;100.00;99689.44;4965837;28;20045;-70
2020/12/08 03:50:13;;;;;;;43.60;20.48;;;;;;;0.88;100.00;99688.53;4965266;28;20355;-70
2020/12/08 03:52:40;;;;;;;35.00;17.33;;;;;;;0.89;100.00;99692.88;4963858;28;20035;-70
2020/12/08 03:55:07;;;;;;;43.00;20.25;;;;;;;0.92;100.00;99692.78;4967565;28;20686;-70
2020/12/08 03:57:33;;;;;;;39.83;18.52;;;;;;;0.92;100.00;99682.22;4966015;28;20034;-69
2020/12/08 03:59:59;;;;;;;43.33;18.33;;;;;;;0.93;100.00;99673.34;4966354;28;20042;-68
2020/12/08 04:02:25;;;;;;;45.22;19.13;;;;;;;0.95;100.00;99688.22;4963056;28;20031;-70
2020/12/08 04:04:51;;;;;;;40.40;17.92;;;;;;;0.97;100.00;99690.81;4957811;28;20093;-70
2020/12/08 04:07:18;;;;;;;38.35;18.60;;;;;;;0.98;100.00;99688.09;4966785;28;20049;-69
2020/12/08 04:09:47;;;;;;;48.67;20.60;;;;;;;0.99;100.00;99694.25;4981620;28;20125;-70
2020/12/08 04:12:12;;;;;;;43.10;19.55;;;;;;;1.00;100.00;99690.66;4970441;28;20066;-70
2020/12/08 04:14:38;;;;;;;47.58;20.52;;;;;;;1.06;100.00;99695.69;4970257;28;20038;-70
2020/12/08 04:17:04;;;;;;;43.22;18.88;;;;;;;1.09;100.00;99685.00;4970221;28;20117;-70
2020/12/08 04:19:29;;;;;;;40.58;17.90;;;;;;;1.10;100.00;99686.72;4971115;28;20725;-70
2020/12/08 04:21:59;;;;;;;45.63;21.17;;;;;;;1.13;100.00;99692.72;4971583;28;20409;-70
2020/12/08 04:24:33;;;;;;;47.88;20.75;;;;;;;1.14;100.00;99688.31;4954243;28;20039;-70
2020/12/08 04:26:58;;;;;;;54.00;20.90;;;;;;;1.14;100.00;99683.88;4987053;28;20409;-70
2020/12/08 04:29:32;;;;;;;47.63;21.02;;;;;;;1.17;100.00;99691.66;4969269;28;20389;-69
2020/12/08 04:31:57;;;;;;;48.97;21.65;;;;;;;1.19;100.00;99689.81;4974285;28;20034;-69
2020/12/08 04:34:23;;;;;;;49.95;20.67;;;;;;;1.20;100.00;99688.03;4965354;28;20038;-70
2020/12/08 04:36:48;;;;;;;47.75;21.17;;;;;;;1.23;100.00;99693.22;4973246;28;20080;-68
2020/12/08 04:39:14;;;;;;;46.45;19.25;;;;;;;1.25;100.00;99693.97;4962677;28;20549;-70
2020/12/08 04:41:39;;;;;;;49.30;20.25;;;;;;;1.25;100.00;99701.91;4970632;28;20050;-70
2020/12/08 04:44:05;;;;;;;49.78;21.60;;;;;;;1.27;100.00;99699.22;4979965;28;20110;-70
2020/12/08 04:46:31;;;;;;;58.13;23.63;;;;;;;1.27;100.00;99701.84;4965583;28;20405;-68
2020/12/08 04:48:57;;;;;;;83.75;30.65;;;;;;;1.28;100.00;99695.66;4963063;28;20090;-70
2020/12/08 04:51:23;;;;;;;75.65;29.38;;;;;;;1.27;100.00;99694.78;4985868;28;20105;-69
2020/12/08 04:53:52;;;;;;;73.78;27.88;;;;;;;1.28;100.00;99691.22;4966884;28;20050;-69
2020/12/08 04:56:17;;;;;;;75.43;28.13;;;;;;;1.29;100.00;99703.53;4953331;28;20034;-70
2020/12/08 04:58:43;;;;;;;78.22;29.33;;;;;;;1.30;100.00;99699.09;4971047;28;20046;-69
2020/12/08 05:01:09;;;;;;;86.15;31.05;;;;;;;1.30;100.00;99697.28;4970413;28;20089;-70
2020/12/08 05:03:36;;;;;;;116.93;35.65;;;;;;;1.31;100.00;99696.38;4965476;28;20039;-70
2020/12/08 05:06:04;;;;;;;154.23;45.15;;;;;;;1.34;100.00;99701.53;4968276;28;20038;-70
2020/12/08 05:08:30;;;;;;;126.55;40.45;;;;;;;1.34;100.00;99696.25;4967769;28;20038;-70
2020/12/08 05:11:06;;;;;;;125.07;37.72;;;;;;;1.35;100.00;99697.97;4968567;28;20409;-68
2020/12/08 05:13:32;;;;;;;99.90;33.50;;;;;;;1.37;100.00;99695.25;4965405;28;20046;-70
2020/12/08 05:16:01;;;;;;;89.50;30.95;;;;;;;1.37;100.00;99701.38;4964923;28;20088;-70
2020/12/08 05:18:27;;;;;;;85.82;30.85;;;;;;;1.39;100.00;99703.97;4983255;28;20136;-70
2020/12/08 05:20:52;;;;;;;96.50;32.78;;;;;;;1.38;100.00;99705.75;4967688;28;20027;-70
2020/12/08 05:23:18;;;;;;;93.35;32.22;;;;;;;1.40;100.00;99706.56;4967144;28;20524;-69
2020/12/08 05:25:45;;;;;;;79.10;28.48;;;;;;;1.41;100.00;99710.94;4960876;28;20054;-70
2020/12/08 05:28:17;;;;;;;80.55;27.73;;;;;;;1.43;100.00;99708.19;4985493;28;20246;-70
2020/12/08 05:30:46;;;;;;;71.75;27.42;;;;;;;1.42;100.00;99699.41;4967705;28;20554;-69
2020/12/08 05:33:18;;;;;;;75.07;26.45;;;;;;;1.43;100.00;99706.41;4968151;28;20121;-70
2020/12/08 05:35:45;;;;;;;69.55;26.30;;;;;;;1.43;100.00;99706.41;4967731;28;20509;-70
2020/12/08 05:38:15;;;;;;;72.65;25.50;;;;;;;1.45;100.00;99701.94;4970560;28;20043;-70
2020/12/08 05:40:43;;;;;;;72.68;25.60;;;;;;;1.46;100.00;99716.88;4966524;28;20039;-70
2020/12/08 05:43:09;;;;;;;69.20;27.20;;;;;;;1.49;100.00;99706.16;4961865;28;20077;-68
2020/12/08 05:45:36;;;;;;;77.60;28.23;;;;;;;1.47;100.00;99708.03;4965870;28;20444;-70
2020/12/08 05:48:01;;;;;;;77.18;28.13;;;;;;;1.48;100.00;99711.53;4966180;28;20089;-70
2020/12/08 05:50:27;;;;;;;71.97;26.88;;;;;;;1.48;100.00;99714.16;4966667;28;20038;-69
2020/12/08 05:52:55;;;;;;;68.63;26.52;;;;;;;1.46;100.00;99722.16;4951879;28;20042;-70
2020/12/08 05:55:23;;;;;;;76.97;29.50;;;;;;;1.45;100.00;99723.09;4968049;28;20030;-70
2020/12/08 05:57:52;;;;;;;67.18;25.75;;;;;;;1.48;100.00;99715.00;4972527;28;20123;-70
2020/12/08 06:00:23;;;;;;;63.75;25.55;;;;;;;1.48;100.00;99715.00;4964678;28;20031;-70
2020/12/08 06:02:49;;;;;;;66.53;25.23;;;;;;;1.51;100.00;99722.81;4966654;28;20507;-71
2020/12/08 06:05:32;;;;;;;60.13;23.80;;;;;;;1.51;100.00;99714.03;4985886;28;20117;-71
2020/12/08 06:07:58;;;;;;;60.78;23.50;;;;;;;1.51;100.00;99720.16;4962030;28;20042;-70
2020/12/08 06:10:24;;;;;;;54.33;23.13;;;;;;;1.53;100.00;99718.31;4948893;28;20045;-70
2020/12/08 06:12:58;;;;;;;54.17;22.38;;;;;;;1.54;100.00;99725.31;4966428;28;20042;-71
2020/12/08 06:15:27;;;;;;;57.30;23.48;;;;;;;1.54;100.00;99722.66;4966580;28;20050;-71
2020/12/08 06:17:53;;;;;;;51.60;22.98;;;;;;;1.56;100.00;99725.25;4966355;28;20038;-69
2020/12/08 06:20:19;;;;;;;49.28;21.05;;;;;;;1.55;100.00;99724.38;4962004;28;20034;-69
2020/12/08 06:22:56;;;;;;;53.00;23.20;;;;;;;1.56;100.00;99734.03;4966427;28;20070;-70
2020/12/08 06:25:22;;;;;;;52.05;21.52;;;;;;;1.56;100.00;99734.03;4967796;28;20035;-70
2020/12/08 06:27:47;;;;;;;56.53;23.67;;;;;;;1.56;100.00;99739.34;4967353;28;20552;-70
2020/12/08 06:30:13;;;;;;;60.13;22.98;;;;;;;1.56;100.00;99739.34;4967029;28;20049;-69
2020/12/08 06:32:41;;;;;;;56.53;21.65;;;;;;;1.57;100.00;99735.78;4966123;28;20741;-70
2020/12/08 06:35:10;;;;;;;51.42;21.73;;;;;;;1.57;100.00;99729.63;4961775;28;20042;-70
2020/12/08 06:37:41;;;;;;;49.58;21.02;;;;;;;1.54;100.00;99738.53;4963953;28;20066;-69
2020/12/08 06:40:09;;;;;;;49.50;21.23;;;;;;;1.51;100.00;99736.03;4968965;28;20058;-70
2020/12/08 06:42:35;;;;;;;55.92;22.50;;;;;;;1.50;100.00;99739.59;4963312;28;20042;-71
2020/12/08 06:45:12;;;;;;;60.75;23.23;;;;;;;1.48;100.00;99732.69;4964883;28;20030;-70
2020/12/08 06:47:38;;;;;;;58.15;23.90;;;;;;;1.54;100.00;99735.88;4980901;28;20046;-73
2020/12/08 06:50:05;;;;;;;75.43;30.52;;;;;;;1.53;100.00;99739.47;4968225;28;20035;-72
2020/12/08 06:52:31;;;;;;;63.03;25.75;;;;;;;1.73;100.00;99743.88;4962882;28;20461;-70
2020/12/08 06:55:01;;;;;;;73.57;26.73;;;;;;;1.90;100.00;99745.81;4964440;28;20035;-69
2020/12/08 06:57:26;;;;;;;66.95;28.35;;;;;;;2.15;100.00;99743.78;4963059;28;20042;-70
2020/12/08 07:00:08;;;;;;;65.57;27.95;;;;;;;2.47;100.00;99749.38;4970225;28;20038;-70
2020/12/08 07:02:42;;;;;;;63.00;25.97;;;;;;;2.59;100.00;99743.50;4979958;28;20035;-70
2020/12/08 07:05:07;;;;;;;60.25;25.50;;;;;;;2.69;100.00;99750.06;4966492;28;20101;-70
2020/12/08 07:07:33;;;;;;;56.22;24.55;;;;;;;2.71;100.00;99764.13;4966893;28;20049;-70
2020/12/08 07:09:59;;;;;;;46.67;21.30;;;;;;;2.81;100.00;99753.00;4981711;28;20049;-68
2020/12/08 07:12:24;;;;;;;46.08;21.48;;;;;;;2.93;100.00;99763.94;4968251;28;20035;-70
2020/12/08 07:14:59;;;;;;;44.97;21.52;;;;;;;2.91;100.00;99761.34;4966720;28;20042;-70
2020/12/08 07:17:29;;;;;;;45.03;21.10;;;;;;;3.05;100.00;99774.81;4965556;28;20128;-71
2020/12/08 07:19:54;;;;;;;42.78;21.25;;;;;;;3.05;100.00;99777.44;4965022;28;20177;-68
2020/12/08 07:22:19;;;;;;;47.55;21.38;;;;;;;3.11;100.00;99782.47;4967888;28;20141;-70
2020/12/08 07:24:47;;;;;;;44.38;21.42;;;;;;;3.07;100.00;99786.19;4964347;28;20039;-69
2020/12/08 07:27:13;;;;;;;40.75;19.52;;;;;;;3.17;100.00;99789.25;4960124;28;20035;-70
2020/12/08 07:29:39;;;;;;;40.70;20.02;;;;;;;3.32;100.00;99787.66;4982913;28;20065;-69
2020/12/08 07:32:05;;;;;;;42.42;20.35;;;;;;;3.20;100.00;99800.59;4964702;28;20110;-70
2020/12/08 07:34:30;;;;;;;42.10;20.10;;;;;;;3.14;100.00;99789.41;4964767;28;20125;-71
2020/12/08 07:36:56;;;;;;;40.63;20.05;;;;;;;3.21;100.00;99789.00;4962965;28;20039;-71
2020/12/08 07:39:22;;;;;;;42.70;19.55;;;;;;;3.21;100.00;99799.63;4968449;28;20038;-71
2020/12/08 07:41:47;;;;;;;41.67;20.15;;;;;;;3.22;100.00;99803.13;4963657;28;20522;-70
2020/12/08 07:44:16;;;;;;;42.60;19.52;;;;;;;3.23;100.00;99805.72;4966833;28;20054;-71
2020/12/08 07:46:50;;;;;;;43.22;20.45;;;;;;;3.27;100.00;99805.59;4959834;28;20069;-71
2020/12/08 07:49:15;;;;;;;40.65;20.52;;;;;;;3.36;100.00;99799.81;4971563;28;20081;-68
2020/12/08 07:51:41;;;;;;;38.60;19.85;;;;;;;3.33;100.00;99808.81;4963179;28;20110;-71
2020/12/08 07:54:07;;;;;;;41.78;20.20;;;;;;;3.36;100.00;99815.72;4981960;28;20106;-70
2020/12/08 07:56:35;;;;;;;44.83;20.27;;;;;;;3.46;100.00;99807.22;4964216;28;20035;-71
2020/12/08 07:59:02;;;;;;;46.35;21.05;;;;;;;3.59;100.00;99812.78;4964806;28;20046;-70
2020/12/08 08:01:28;;;;;;;40.70;21.00;;;;;;;3.64;100.00;99808.13;4961661;28;20041;-70
2020/12/08 08:03:53;;;;;;;59.15;23.90;;;;;;;3.48;100.00;99815.13;4950266;28;20038;-70
2020/12/08 08:06:22;;;;;;;50.15;22.73;;;;;;;3.51;100.00;99814.97;4963661;28;20019;-69
2020/12/08 08:08:49;;;;;;;43.97;20.65;;;;;;;3.69;100.00;99823.81;4966844;28;20061;-70
2020/12/08 08:11:16;;;;;;;38.08;19.83;;;;;;;3.72;100.00;99808.59;4969064;28;20043;-70
2020/12/08 08:13:42;;;;;;;36.05;19.00;;;;;;;3.67;100.00;99811.47;4968214;28;20047;-71
2020/12/08 08:16:11;;;;;;;34.88;18.92;;;;;;;3.73;100.00;99818.25;4968955;28;20031;-70
2020/12/08 08:18:38;;;;;;;37.45;19.67;;;;;;;3.73;100.00;99818.25;4967097;28;20035;-70
2020/12/08 08:21:04;;;;;;;41.33;20.05;;;;;;;3.77;100.00;99816.31;4965216;28;20053;-69
2020/12/08 08:23:30;;;;;;;41.67;20.88;;;;;;;3.73;100.00;99820.91;4965546;28;20097;-70
2020/12/08 08:25:56;;;;;;;38.53;19.85;;;;;;;3.65;100.00;99833.69;4960388;28;20119;-70
2020/12/08 08:28:22;;;;;;;40.92;20.90;;;;;;;3.68;100.00;99825.59;4983749;23;20043;-69
2020/12/08 08:30:47;;;;;;;39.45;19.50;;;;;;;3.67;100.00;99818.56;4977988;28;20042;-69
2020/12/08 08:33:13;;;;;;;34.80;18.40;;;;;;;3.56;100.00;99828.88;4974217;28;20034;-69
2020/12/08 08:35:38;;;;;;;41.17;20.02;;;;;;;3.62;100.00;99821.47;4979274;28;20039;-70
2020/12/08 08:38:03;;;;;;;37.22;19.52;;;;;;;3.51;100.00;99825.59;4986457;28;20042;-69
2020/12/08 08:40:29;;;;;;;37.35;18.98;;;;;;;3.65;100.00;99829.25;4983957;28;20030;-69
2020/12/08 08:42:55;;;;;;;42.13;19.67;;;;;;;3.57;100.00;99819.97;4980322;28;20034;-69
2020/12/08 08:45:23;;;;;;;36.78;18.83;;;;;;;3.63;100.00;99822.31;4967203;28;20030;-69
2020/12/08 08:47:49;;;;;;;42.15;20.15;;;;;;;3.48;100.00;99831.91;4980918;28;20038;-69
2020/12/08 08:50:14;;;;;;;42.03;21.10;;;;;;;3.41;100.00;99832.28;4983574;28;20042;-70
2020/12/08 08:52:40;;;;;;;42.58;22.17;;;;;;;3.44;100.00;99829.47;4980150;28;20034;-70
2020/12/08 08:55:08;;;;;;;41.78;20.85;;;;;;;3.46;100.00;99822.28;4974275;28;20413;-70
2020/12/08 08:57:34;;;;;;;39.22;20.77;;;;;;;3.58;100.00;99832.31;4983172;28;20307;-69
2020/12/08 08:59:59;;;;;;;41.67;21.70;;;;;;;3.46;100.00;99831.09;4985095;28;20418;-70
2020/12/08 09:02:24;;;;;;;39.38;20.20;;;;;;;3.45;100.00;99844.47;4986063;28;20037;-70
2020/12/08 09:04:50;;;;;;;43.10;20.77;;;;;;;3.45;100.00;99847.13;5000383;28;20128;-69
2020/12/08 09:07:15;;;;;;;42.03;21.60;;;;;;;3.54;100.00;99842.22;4980693;28;20035;-69
2020/12/08 09:09:41;;;;;;;41.13;20.73;;;;;;;3.59;100.00;99847.28;4971157;28;20306;-70
2020/12/08 09:12:06;;;;;;;39.50;20.25;;;;;;;3.57;100.00;99846.50;4984463;28;20065;-69
2020/12/08 09:14:32;;;;;;;46.30;21.73;;;;;;;3.58;100.00;99837.63;4986512;28;20428;-69
2020/12/08 09:16:57;;;;;;;41.85;20.15;;;;;;;3.70;100.00;99841.47;4985531;28;20153;-70
2020/12/08 09:19:23;;;;;;;38.75;19.60;;;;;;;3.76;100.00;99842.00;4978978;28;20062;-69
2020/12/08 09:21:54;;;;;;;37.08;19.10;;;;;;;3.73;100.00;99839.50;4984125;28;20038;-69
2020/12/08 09:24:20;;;;;;;42.65;21.00;;;;;;;3.76;100.00;99846.47;4985467;28;20088;-69
2020/12/08 09:26:45;;;;;;;37.03;19.33;;;;;;;3.77;100.00;99838.41;4988478;28;20042;-69
2020/12/08 09:29:11;;;;;;;37.70;19.13;;;;;;;3.93;100.00;99835.84;4983922;28;20038;-70
2020/12/08 09:31:37;;;;;;;37.15;19.30;;;;;;;3.93;100.00;99839.34;4986174;28;20070;-70
2020/12/08 09:34:02;;;;;;;41.70;21.60;;;;;;;3.79;100.00;99847.16;4987775;28;20072;-69
2020/12/08 09:36:28;;;;;;;37.03;19.80;;;;;;;3.80;100.00;99843.56;4983430;28;20061;-70
2020/12/08 09:38:54;;;;;;;40.25;20.08;;;;;;;3.85;100.00;99844.19;4987402;28;20042;-70
2020/12/08 09:41:19;;;;;;;40.80;20.17;;;;;;;3.99;100.00;99844.34;4981612;28;20038;-70
2020/12/08 09:43:45;;;;;;;39.35;19.55;;;;;;;3.92;100.00;99842.94;4979376;28;20325;-69
2020/12/08 09:46:11;;;;;;;39.63;19.90;;;;;;;3.96;100.00;99844.50;4984786;28;20030;-70
2020/12/08 09:48:36;;;;;;;37.10;19.27;;;;;;;4.04;100.00;99852.94;4984424;28;20043;-69
2020/12/08 09:51:02;;;;;;;40.88;20.20;;;;;;;4.18;100.00;99846.03;4984456;28;20041;-70
2020/12/08 09:53:27;;;;;;;36.25;18.80;;;;;;;4.17;100.00;99857.59;4988042;28;20048;-70
2020/12/08 09:55:52;;;;;;;37.47;18.65;;;;;;;4.13;100.00;99845.44;4985462;28;20034;-70
2020/12/08 09:58:18;;;;;;;36.63;18.08;;;;;;;4.18;100.00;99857.53;4980154;28;20034;-69
2020/12/08 10:00:43;;;;;;;37.97;18.45;;;;;;;4.17;100.00;99853.16;4986768;28;20084;-69
2020/12/08 10:03:09;;;;;;;37.42;19.13;;;;;;;4.14;100.00;99855.94;4985928;28;20054;-69
2020/12/08 10:05:34;;;;;;;35.03;18.40;;;;;;;4.20;100.00;99858.28;4983972;28;20054;-69
2020/12/08 10:07:59;;;;;;;36.85;18.60;;;;;;;4.28;100.00;99857.91;4983574;28;20089;-69
2020/12/08 10:10:25;;;;;;;34.38;16.90;;;;;;;4.41;100.00;99866.94;4973232;28;20042;-70
2020/12/08 10:12:50;;;;;;;32.08;17.05;;;;;;;4.39;100.00;99858.19;4981148;28;20042;-69
2020/12/08 10:15:18;;;;;;;37.05;18.63;;;;;;;4.45;100.00;99852.56;4986071;28;20049;-69
2020/12/08 10:17:44;;;;;;;39.05;17.23;;;;;;;4.54;100.00;99857.41;4984799;28;20046;-69
2020/12/08 10:20:10;;;;;;;34.22;16.80;;;;;;;4.68;100.00;99857.53;4988168;28;20756;-69
2020/12/08 10:22:35;;;;;;;30.05;16.00;;;;;;;4.80;100.00;99856.84;4982306;28;20031;-69
2020/12/08 10:25:02;;;;;;;31.33;16.25;;;;;;;4.82;100.00;99857.59;4986272;28;20484;-69
2020/12/08 10:27:27;;;;;;;31.80;17.13;;;;;;;4.77;100.00;99853.50;4983131;28;20030;-69
2020/12/08 10:29:52;;;;;;;31.90;16.33;;;;;;;4.77;100.00;99851.69;4983214;28;20416;-69
2020/12/08 10:32:18;;;;;;;32.60;15.57;;;;;;;4.81;100.00;99853.22;4980560;28;20039;-69
2020/12/08 10:34:44;;;;;;;32.13;16.63;;;;;;;4.83;100.00;99854.00;4988288;28;20116;-69
2020/12/08 10:37:09;;;;;;;32.35;17.50;;;;;;;4.78;100.00;99856.06;4984941;28;20069;-69
2020/12/08 10:39:34;;;;;;;48.58;22.35;;;;;;;4.73;100.00;99847.50;4987739;28;20042;-69
2020/12/08 10:42:00;;;;;;;38.50;19.42;;;;;;;4.80;100.00;99854.19;4982792;28;20092;-69
2020/12/08 10:44:26;;;;;;;34.22;18.20;;;;;;;4.99;100.00;99859.38;4979714;28;20045;-69
2020/12/08 10:46:52;;;;;;;30.67;16.52;;;;;;;4.97;100.00;99860.38;4982841;28;20042;-70
2020/12/08 10:49:19;;;;;;;33.22;17.20;;;;;;;5.11;100.00;99852.50;4984243;28;20121;-69
2020/12/08 10:51:44;;;;;;;31.83;17.10;;;;;;;5.14;99.35;99857.63;4984872;28;20373;-69
2020/12/08 10:54:10;;;;;;;31.45;17.55;;;;;;;5.08;99.60;99855.31;4987468;28;20053;-69
2020/12/08 10:56:35;;;;;;;33.38;16.98;;;;;;;5.22;98.29;99855.41;4980674;28;20108;-69
2020/12/08 10:59:00;;;;;;;31.10;16.92;;;;;;;5.28;96.48;99849.75;4976810;28;20455;-70
2020/12/08 11:01:26;;;;;;;35.40;16.85;;;;;;;5.31;96.42;99843.41;4979780;28;20031;-69
2020/12/08 11:03:53;;;;;;;28.70;15.77;;;;;;;5.50;94.52;99850.25;4981926;28;20069;-69
2020/12/08 11:06:24;;;;;;;27.52;15.45;;;;;;;5.43;93.64;99846.22;4979914;28;20045;-70
2020/12/08 11:08:50;;;;;;;29.35;16.08;;;;;;;5.55;92.72;99845.53;4984760;28;20046;-69
2020/12/08 11:11:32;;;;;;;31.85;17.02;;;;;;;5.49;92.95;99837.03;4983738;28;20404;-69
2020/12/08 11:13:59;;;;;;;27.90;14.70;;;;;;;5.52;93.63;99840.38;4986000;28;20045;-69
2020/12/08 11:16:26;;;;;;;28.02;15.80;;;;;;;5.44;94.12;99834.63;4984076;28;20034;-69